Time,TemperatureF,DewpointF,PressureIn,WindDirection,WindDirectionDegrees,WindSpeedMPH,WindSpeedGustMPH,Humidity,HourlyPrecipIn,Conditions,Clouds,dailyrainin,SolarRadiationWatts/m^2,SoftwareType,DateUTC
2013-07-23 00:01:00,70.0,54.0,-100.00,SW,227,2.0,8.0,57,0.00,,,0.07,0.000000,,2013-07-23 07:01:00,
2013-07-23 00:11:00,70.0,54.0,-100.00,SW,227,2.0,8.0,57,0.00,,,0.07,0.000000,,2013-07-23 07:11:00,
2013-07-23 00:21:00,70.0,54.0,-100.00,SW,227,2.0,8.0,57,0.00,,,0.07,0.000000,,2013-07-23 07:21:00,
2013-07-23 00:32:00,69.0,54.0,-100.00,WSW,241,5.0,8.0,58,-99.99,,,0.07,0.000000,,2013-07-23 07:32:00,
2013-07-23 01:01:00,69.0,54.0,-100.00,WSW,241,5.0,8.0,58,-99.99,,,0.07,0.000000,,2013-07-23 08:01:00,
2013-07-23 01:11:00,69.0,54.0,-100.00,WSW,241,5.0,8.0,58,-99.99,,,0.07,0.000000,,2013-07-23 08:11:00,
2013-07-23 01:21:00,69.0,54.0,-100.00,WSW,241,5.0,8.0,58,-99.99,,,0.07,0.000000,,2013-07-23 08:21:00,
2013-07-23 01:32:00,69.0,51.0,-100.00,NNE,16,2.0,7.0,53,0.00,,,0.07,0.000000,,2013-07-23 08:32:00,
2013-07-23 02:01:00,69.0,51.0,-100.00,NNE,16,2.0,7.0,53,0.00,,,0.07,0.000000,,2013-07-23 09:01:00,
2013-07-23 02:11:00,69.0,51.0,-100.00,NNE,16,2.0,7.0,53,0.00,,,0.07,0.000000,,2013-07-23 09:11:00,
2013-07-23 02:22:00,69.0,51.0,-100.00,NNE,16,2.0,7.0,53,0.00,,,0.07,0.000000,,2013-07-23 09:22:00,
2013-07-23 02:32:00,67.0,58.0,-100.00,East,86,3.0,18.0,74,0.00,,,0.07,0.000000,,2013-07-23 09:32:00,
2013-07-23 03:01:00,67.0,58.0,-100.00,East,86,3.0,18.0,74,0.00,,,0.07,0.000000,,2013-07-23 10:01:00,
2013-07-23 03:11:00,67.0,58.0,-100.00,East,86,3.0,18.0,74,0.00,,,0.07,0.000000,,2013-07-23 10:11:00,
2013-07-23 03:21:00,67.0,58.0,-100.00,East,86,3.0,18.0,74,0.00,,,0.07,0.000000,,2013-07-23 10:21:00,
2013-07-23 03:32:00,65.0,54.0,-100.00,NE,41,0.0,18.0,67,0.00,,,0.07,0.000000,,2013-07-23 10:32:00,
2013-07-23 04:01:00,65.0,54.0,-100.00,NE,41,0.0,18.0,67,0.00,,,0.07,0.000000,,2013-07-23 11:01:00,
2013-07-23 04:11:00,65.0,54.0,-100.00,NE,41,0.0,18.0,67,0.00,,,0.07,0.000000,,2013-07-23 11:11:00,
2013-07-23 04:21:00,65.0,54.0,-100.00,NE,41,0.0,18.0,67,0.00,,,0.07,0.000000,,2013-07-23 11:21:00,
2013-07-23 04:32:00,66.0,53.0,-100.00,SW,229,3.0,6.0,64,0.00,,,0.07,0.000000,,2013-07-23 11:32:00,
2013-07-23 05:02:00,66.0,53.0,-100.00,SW,229,3.0,6.0,64,0.00,,,0.07,0.000000,,2013-07-23 12:02:00,
2013-07-23 05:11:00,66.0,53.0,-100.00,SW,229,3.0,6.0,64,0.00,,,0.07,0.000000,,2013-07-23 12:11:00,
2013-07-23 05:22:00,66.0,53.0,-100.00,SW,229,3.0,6.0,64,0.00,,,0.07,0.000000,,2013-07-23 12:22:00,
2013-07-23 05:32:00,66.0,51.0,-100.00,SW,230,3.0,7.0,59,0.00,,,0.07,0.000000,,2013-07-23 12:32:00,
2013-07-23 06:01:00,66.0,51.0,-100.00,SW,230,3.0,7.0,59,0.00,,,0.07,0.000000,,2013-07-23 13:01:00,
2013-07-23 06:11:00,66.0,51.0,-100.00,SW,230,3.0,7.0,59,0.00,,,0.07,0.000000,,2013-07-23 13:11:00,
2013-07-23 06:22:00,66.0,51.0,-100.00,SW,230,3.0,7.0,59,0.00,,,0.07,0.000000,,2013-07-23 13:22:00,
2013-07-23 06:32:00,69.0,52.0,-100.00,SW,220,1.0,7.0,55,0.00,,,0.07,12.000000,,2013-07-23 13:32:00,
2013-07-23 07:02:00,69.0,52.0,-100.00,SW,220,1.0,7.0,55,0.00,,,0.07,12.000000,,2013-07-23 14:02:00,
2013-07-23 07:12:00,69.0,52.0,-100.00,SW,220,1.0,7.0,55,0.00,,,0.07,12.000000,,2013-07-23 14:12:00,
2013-07-23 07:22:00,69.0,52.0,-100.00,SW,220,1.0,7.0,55,0.00,,,0.07,12.000000,,2013-07-23 14:22:00,
2013-07-23 07:32:00,70.0,50.0,-100.00,SE,143,5.0,9.0,49,0.00,,,0.07,170.000000,,2013-07-23 14:32:00,
2013-07-23 08:03:00,70.0,50.0,-100.00,SE,143,5.0,9.0,49,0.00,,,0.07,170.000000,,2013-07-23 15:03:00,
2013-07-23 08:11:00,70.0,50.0,-100.00,SE,143,5.0,9.0,49,0.00,,,0.07,170.000000,,2013-07-23 15:11:00,
2013-07-23 08:24:00,70.0,50.0,-100.00,SE,143,5.0,9.0,49,0.00,,,0.07,170.000000,,2013-07-23 15:24:00,
2013-07-23 08:32:00,77.0,54.0,-100.00,ENE,64,0.0,7.0,45,0.00,,,0.07,405.000000,,2013-07-23 15:32:00,
2013-07-23 09:22:00,77.0,54.0,-100.00,ENE,64,0.0,7.0,45,0.00,,,0.07,405.000000,,2013-07-23 16:22:00,
2013-07-23 10:32:00,78.0,56.0,-100.00,SE,129,6.0,14.0,47,-99.99,,,0.07,821.000000,,2013-07-23 17:32:00,
2013-07-23 11:02:00,78.0,56.0,-100.00,SE,129,6.0,14.0,47,-99.99,,,0.07,821.000000,,2013-07-23 18:02:00,
2013-07-23 11:11:00,78.0,56.0,-100.00,SE,129,6.0,14.0,47,-99.99,,,0.07,821.000000,,2013-07-23 18:11:00,
2013-07-23 11:23:00,78.0,56.0,-100.00,SE,129,6.0,14.0,47,-99.99,,,0.07,821.000000,,2013-07-23 18:23:00,
2013-07-23 11:32:00,79.0,55.0,-100.00,SE,134,7.0,13.0,44,0.00,,,0.07,1008.000000,,2013-07-23 18:32:00,
2013-07-23 12:02:00,79.0,55.0,-100.00,SE,134,7.0,13.0,44,0.00,,,0.07,1008.000000,,2013-07-23 19:02:00,
2013-07-23 12:13:00,79.0,55.0,-100.00,SE,134,7.0,13.0,44,0.00,,,0.07,1008.000000,,2013-07-23 19:13:00,
2013-07-23 12:23:00,79.0,55.0,-100.00,SE,134,7.0,13.0,44,0.00,,,0.07,1008.000000,,2013-07-23 19:23:00,
2013-07-23 12:32:00,80.0,55.0,-100.00,SE,142,10.0,16.0,42,0.00,,,0.07,1162.000000,,2013-07-23 19:32:00,
2013-07-23 13:03:00,80.0,55.0,-100.00,SE,142,10.0,16.0,42,0.00,,,0.07,1162.000000,,2013-07-23 20:03:00,
2013-07-23 13:12:00,80.0,55.0,-100.00,SE,142,10.0,16.0,42,0.00,,,0.07,1162.000000,,2013-07-23 20:12:00,
2013-07-23 13:22:00,80.0,55.0,-100.00,SE,142,10.0,16.0,42,0.00,,,0.07,1162.000000,,2013-07-23 20:22:00,
2013-07-23 13:32:00,77.0,54.0,-100.00,SW,217,3.0,15.0,45,0.00,,,0.07,533.000000,,2013-07-23 20:32:00,
2013-07-23 14:03:00,77.0,54.0,-100.00,SW,217,3.0,15.0,45,0.00,,,0.07,533.000000,,2013-07-23 21:03:00,
2013-07-23 14:13:00,77.0,54.0,-100.00,SW,217,3.0,15.0,45,0.00,,,0.07,533.000000,,2013-07-23 21:13:00,
2013-07-23 14:22:00,77.0,54.0,-100.00,SW,217,3.0,15.0,45,0.00,,,0.07,533.000000,,2013-07-23 21:22:00,
2013-07-23 14:32:00,79.0,61.0,-100.00,SE,139,3.0,15.0,55,0.00,,,0.07,373.000000,,2013-07-23 21:32:00,
2013-07-23 15:03:00,79.0,61.0,-100.00,SE,139,3.0,15.0,55,0.00,,,0.07,373.000000,,2013-07-23 22:03:00,
2013-07-23 15:11:00,79.0,61.0,-100.00,SE,139,3.0,15.0,55,0.00,,,0.07,373.000000,,2013-07-23 22:11:00,
2013-07-23 15:23:00,79.0,61.0,-100.00,SE,139,3.0,15.0,55,0.00,,,0.07,373.000000,,2013-07-23 22:23:00,
2013-07-23 16:03:00,83.0,55.0,-100.00,ESE,115,5.0,10.0,38,0.00,,,0.07,681.000000,,2013-07-23 23:03:00,
2013-07-23 16:12:00,83.0,55.0,-100.00,ESE,115,5.0,10.0,38,0.00,,,0.07,681.000000,,2013-07-23 23:12:00,
2013-07-23 16:23:00,83.0,55.0,-100.00,ESE,115,5.0,10.0,38,0.00,,,0.07,681.000000,,2013-07-23 23:23:00,
2013-07-23 16:32:00,85.0,51.0,-100.00,North,355,9.0,17.0,31,0.00,,,0.07,590.000000,,2013-07-23 23:32:00,
2013-07-23 16:58:00,85.0,51.0,-100.00,North,355,9.0,17.0,31,0.00,,,0.07,590.000000,,2013-07-23 23:58:00,
2013-07-23 17:13:00,85.0,51.0,-100.00,North,355,9.0,17.0,31,0.00,,,0.07,590.000000,,2013-07-24 00:13:00,
2013-07-23 17:23:00,85.0,51.0,-100.00,North,355,9.0,17.0,31,0.00,,,0.07,590.000000,,2013-07-24 00:23:00,
2013-07-23 17:32:00,81.0,56.0,-100.00,ESE,106,2.0,15.0,42,0.00,,,0.06,204.000000,,2013-07-24 00:32:00,
2013-07-23 18:03:00,81.0,56.0,-100.00,ESE,106,2.0,15.0,42,0.00,,,0.06,204.000000,,2013-07-24 01:03:00,
2013-07-23 18:12:00,81.0,56.0,-100.00,ESE,106,2.0,15.0,42,0.00,,,0.06,204.000000,,2013-07-24 01:12:00,
2013-07-23 18:23:00,81.0,56.0,-100.00,ESE,106,2.0,15.0,42,0.00,,,0.06,204.000000,,2013-07-24 01:23:00,
2013-07-23 18:32:00,78.0,47.0,-100.00,North,351,9.0,19.0,34,0.00,,,0.03,79.000000,,2013-07-24 01:32:00,
2013-07-23 19:03:00,78.0,47.0,-100.00,North,351,9.0,19.0,34,0.00,,,0.03,79.000000,,2013-07-24 02:03:00,
2013-07-23 19:14:00,78.0,47.0,-100.00,North,351,9.0,19.0,34,0.00,,,0.03,79.000000,,2013-07-24 02:14:00,
2013-07-23 19:32:00,76.0,48.0,-100.00,West,279,15.0,27.0,37,0.00,,,0.01,26.000000,,2013-07-24 02:32:00,
2013-07-23 20:02:00,76.0,48.0,-100.00,West,279,15.0,27.0,37,0.00,,,0.01,26.000000,,2013-07-24 03:02:00,
2013-07-23 20:11:00,76.0,48.0,-100.00,West,279,15.0,27.0,37,0.00,,,0.01,26.000000,,2013-07-24 03:11:00,
2013-07-23 20:23:00,76.0,48.0,-100.00,West,279,15.0,27.0,37,0.00,,,0.01,26.000000,,2013-07-24 03:23:00,
2013-07-23 20:32:00,76.0,49.0,-100.00,WNW,293,14.0,26.0,39,0.00,,,0.00,6.000000,,2013-07-24 03:32:00,
2013-07-23 21:01:00,76.0,49.0,-100.00,WNW,293,14.0,26.0,39,0.00,,,0.00,6.000000,,2013-07-24 04:01:00,
2013-07-23 21:11:00,76.0,49.0,-100.00,WNW,293,14.0,26.0,39,0.00,,,0.00,6.000000,,2013-07-24 04:11:00,
2013-07-23 21:22:00,76.0,49.0,-100.00,WNW,293,14.0,26.0,39,0.00,,,0.00,6.000000,,2013-07-24 04:22:00,
2013-07-23 21:32:00,75.0,48.0,-100.00,WNW,283,11.0,24.0,39,0.00,,,0.00,0.000000,,2013-07-24 04:32:00,
2013-07-23 22:02:00,75.0,48.0,-100.00,WNW,283,11.0,24.0,39,0.00,,,0.00,0.000000,,2013-07-24 05:02:00,
2013-07-23 22:11:00,75.0,48.0,-100.00,WNW,283,11.0,24.0,39,0.00,,,0.00,0.000000,,2013-07-24 05:11:00,
2013-07-23 22:22:00,75.0,48.0,-100.00,WNW,283,11.0,24.0,39,0.00,,,0.00,0.000000,,2013-07-24 05:22:00,
2013-07-23 22:32:00,75.0,48.0,-100.00,WNW,297,14.0,21.0,38,0.00,,,-99.99,0.000000,,2013-07-24 05:32:00,
2013-07-23 23:01:00,75.0,48.0,-100.00,WNW,297,14.0,21.0,38,0.00,,,-99.99,0.000000,,2013-07-24 06:01:00,
2013-07-23 23:11:00,75.0,48.0,-100.00,WNW,297,14.0,21.0,38,0.00,,,-99.99,0.000000,,2013-07-24 06:11:00,
2013-07-23 23:24:00,75.0,48.0,-100.00,WNW,297,14.0,21.0,38,0.00,,,-99.99,0.000000,,2013-07-24 06:24:00,
2013-07-23 23:32:00,76.0,49.0,-100.00,West,261,9.0,20.0,38,0.00,,,0.00,0.000000,,2013-07-24 06:32:00,